sensor_id;sensor_type;location;lat;lon;timestamp;temperature;humidity
19829;DHT22;10075;50.924;4.396;2023-06-10T00:01:52;23.60;83.10
19829;DHT22;10075;50.924;4.396;2023-06-10T00:04:21;23.50;83.50
19829;DHT22;10075;50.924;4.396;2023-06-10T00:06:48;23.40;83.60
19829;DHT22;10075;50.924;4.396;2023-06-10T00:09:16;23.40;83.90
19829;DHT22;10075;50.924;4.396;2023-06-10T00:11:44;23.30;84.00
19829;DHT22;10075;50.924;4.396;2023-06-10T00:14:11;23.30;84.20
19829;DHT22;10075;50.924;4.396;2023-06-10T00:16:38;23.30;84.50
19829;DHT22;10075;50.924;4.396;2023-06-10T00:19:05;23.20;84.70
19829;DHT22;10075;50.924;4.396;2023-06-10T00:21:34;23.20;85.00
19829;DHT22;10075;50.924;4.396;2023-06-10T00:24:07;23.10;85.20
19829;DHT22;10075;50.924;4.396;2023-06-10T00:26:38;23.00;85.40
19829;DHT22;10075;50.924;4.396;2023-06-10T00:29:06;23.00;85.60
19829;DHT22;10075;50.924;4.396;2023-06-10T00:31:34;23.00;85.80
19829;DHT22;10075;50.924;4.396;2023-06-10T00:34:01;23.00;86.00
19829;DHT22;10075;50.924;4.396;2023-06-10T00:36:28;22.90;86.20
19829;DHT22;10075;50.924;4.396;2023-06-10T00:38:55;22.90;86.10
19829;DHT22;10075;50.924;4.396;2023-06-10T00:41:22;22.80;86.10
19829;DHT22;10075;50.924;4.396;2023-06-10T00:43:50;22.80;86.40
19829;DHT22;10075;50.924;4.396;2023-06-10T00:46:17;22.80;86.60
19829;DHT22;10075;50.924;4.396;2023-06-10T00:48:45;22.70;86.80
19829;DHT22;10075;50.924;4.396;2023-06-10T00:51:12;22.70;87.00
19829;DHT22;10075;50.924;4.396;2023-06-10T00:53:40;22.60;87.10
19829;DHT22;10075;50.924;4.396;2023-06-10T00:56:08;22.60;87.40
19829;DHT22;10075;50.924;4.396;2023-06-10T00:58:36;22.60;87.60
19829;DHT22;10075;50.924;4.396;2023-06-10T01:01:04;22.50;88.00
19829;DHT22;10075;50.924;4.396;2023-06-10T01:03:31;22.50;88.20
19829;DHT22;10075;50.924;4.396;2023-06-10T01:06:06;22.40;88.30
19829;DHT22;10075;50.924;4.396;2023-06-10T01:08:39;22.40;88.30
19829;DHT22;10075;50.924;4.396;2023-06-10T01:11:13;22.40;88.70
19829;DHT22;10075;50.924;4.396;2023-06-10T01:13:41;22.40;88.80
19829;DHT22;10075;50.924;4.396;2023-06-10T01:16:10;22.30;89.10
19829;DHT22;10075;50.924;4.396;2023-06-10T01:18:40;22.20;89.50
19829;DHT22;10075;50.924;4.396;2023-06-10T01:21:07;22.20;89.80
19829;DHT22;10075;50.924;4.396;2023-06-10T01:23:36;22.10;90.00
19829;DHT22;10075;50.924;4.396;2023-06-10T01:26:09;22.10;90.00
19829;DHT22;10075;50.924;4.396;2023-06-10T01:28:42;22.10;90.00
19829;DHT22;10075;50.924;4.396;2023-06-10T01:31:15;22.10;90.00
19829;DHT22;10075;50.924;4.396;2023-06-10T01:33:45;22.00;90.10
19829;DHT22;10075;50.924;4.396;2023-06-10T01:36:13;21.90;90.20
19829;DHT22;10075;50.924;4.396;2023-06-10T01:38:46;21.90;90.30
19829;DHT22;10075;50.924;4.396;2023-06-10T01:41:15;21.90;90.40
19829;DHT22;10075;50.924;4.396;2023-06-10T01:43:43;21.80;90.40
19829;DHT22;10075;50.924;4.396;2023-06-10T01:46:10;21.80;90.50
19829;DHT22;10075;50.924;4.396;2023-06-10T01:48:37;21.80;90.60
19829;DHT22;10075;50.924;4.396;2023-06-10T01:51:05;21.70;90.70
19829;DHT22;10075;50.924;4.396;2023-06-10T01:53:32;21.70;90.80
19829;DHT22;10075;50.924;4.396;2023-06-10T01:56:00;21.70;90.90
19829;DHT22;10075;50.924;4.396;2023-06-10T01:58:27;21.60;90.90
19829;DHT22;10075;50.924;4.396;2023-06-10T02:00:54;21.60;91.00
19829;DHT22;10075;50.924;4.396;2023-06-10T02:03:21;21.60;91.20
19829;DHT22;10075;50.924;4.396;2023-06-10T02:05:49;21.50;91.30
19829;DHT22;10075;50.924;4.396;2023-06-10T02:08:16;21.50;91.50
19829;DHT22;10075;50.924;4.396;2023-06-10T02:10:43;21.50;91.80
19829;DHT22;10075;50.924;4.396;2023-06-10T02:13:11;21.40;91.80
19829;DHT22;10075;50.924;4.396;2023-06-10T02:15:38;21.40;91.80
19829;DHT22;10075;50.924;4.396;2023-06-10T02:18:05;21.40;91.90
19829;DHT22;10075;50.924;4.396;2023-06-10T02:20:33;21.30;92.00
19829;DHT22;10075;50.924;4.396;2023-06-10T02:22:59;21.30;92.00
19829;DHT22;10075;50.924;4.396;2023-06-10T02:25:26;21.30;92.10
19829;DHT22;10075;50.924;4.396;2023-06-10T02:27:53;21.20;92.10
19829;DHT22;10075;50.924;4.396;2023-06-10T02:30:22;21.20;92.60
19829;DHT22;10075;50.924;4.396;2023-06-10T02:32:49;21.20;92.30
19829;DHT22;10075;50.924;4.396;2023-06-10T02:35:18;21.10;92.50
19829;DHT22;10075;50.924;4.396;2023-06-10T02:37:45;21.10;92.50
19829;DHT22;10075;50.924;4.396;2023-06-10T02:40:12;21.10;92.60
19829;DHT22;10075;50.924;4.396;2023-06-10T02:42:39;21.10;92.70
19829;DHT22;10075;50.924;4.396;2023-06-10T02:45:07;21.10;92.70
19829;DHT22;10075;50.924;4.396;2023-06-10T02:47:37;21.00;92.80
19829;DHT22;10075;50.924;4.396;2023-06-10T02:50:05;21.00;93.00
19829;DHT22;10075;50.924;4.396;2023-06-10T02:52:33;20.90;93.10
19829;DHT22;10075;50.924;4.396;2023-06-10T02:55:00;20.90;93.20
19829;DHT22;10075;50.924;4.396;2023-06-10T02:57:27;20.80;93.30
19829;DHT22;10075;50.924;4.396;2023-06-10T02:59:53;20.90;93.40
19829;DHT22;10075;50.924;4.396;2023-06-10T03:02:20;20.90;93.50
19829;DHT22;10075;50.924;4.396;2023-06-10T03:04:55;20.90;93.60
19829;DHT22;10075;50.924;4.396;2023-06-10T03:07:22;20.90;93.70
19829;DHT22;10075;50.924;4.396;2023-06-10T03:09:49;20.80;93.80
19829;DHT22;10075;50.924;4.396;2023-06-10T03:12:16;20.80;93.90
19829;DHT22;10075;50.924;4.396;2023-06-10T03:14:43;20.80;93.90
19829;DHT22;10075;50.924;4.396;2023-06-10T03:17:10;20.90;94.00
19829;DHT22;10075;50.924;4.396;2023-06-10T03:19:37;20.80;94.20
19829;DHT22;10075;50.924;4.396;2023-06-10T03:22:11;20.70;94.20
19829;DHT22;10075;50.924;4.396;2023-06-10T03:24:38;20.70;94.40
19829;DHT22;10075;50.924;4.396;2023-06-10T03:27:07;20.70;94.60
19829;DHT22;10075;50.924;4.396;2023-06-10T03:29:34;20.60;94.60
19829;DHT22;10075;50.924;4.396;2023-06-10T03:32:01;20.60;94.70
19829;DHT22;10075;50.924;4.396;2023-06-10T03:34:28;20.60;94.80
19829;DHT22;10075;50.924;4.396;2023-06-10T03:36:56;20.60;94.90
19829;DHT22;10075;50.924;4.396;2023-06-10T03:39:25;20.60;94.90
19829;DHT22;10075;50.924;4.396;2023-06-10T03:41:54;20.60;95.00
19829;DHT22;10075;50.924;4.396;2023-06-10T03:44:21;20.50;95.00
19829;DHT22;10075;50.924;4.396;2023-06-10T03:46:48;20.60;95.10
19829;DHT22;10075;50.924;4.396;2023-06-10T03:49:15;20.60;95.20
19829;DHT22;10075;50.924;4.396;2023-06-10T03:51:42;20.60;95.30
19829;DHT22;10075;50.924;4.396;2023-06-10T03:54:09;20.60;95.30
19829;DHT22;10075;50.924;4.396;2023-06-10T03:56:38;20.60;95.30
19829;DHT22;10075;50.924;4.396;2023-06-10T03:59:05;20.60;95.40
19829;DHT22;10075;50.924;4.396;2023-06-10T04:01:32;20.70;95.50
19829;DHT22;10075;50.924;4.396;2023-06-10T04:04:00;20.70;95.50
19829;DHT22;10075;50.924;4.396;2023-06-10T04:06:28;20.70;95.60
19829;DHT22;10075;50.924;4.396;2023-06-10T04:08:55;20.70;95.60
19829;DHT22;10075;50.924;4.396;2023-06-10T04:11:23;20.70;95.70
19829;DHT22;10075;50.924;4.396;2023-06-10T04:13:51;20.70;95.80
19829;DHT22;10075;50.924;4.396;2023-06-10T04:16:18;20.70;95.90
19829;DHT22;10075;50.924;4.396;2023-06-10T04:18:46;20.70;95.90
19829;DHT22;10075;50.924;4.396;2023-06-10T04:21:13;20.80;96.00
19829;DHT22;10075;50.924;4.396;2023-06-10T04:23:40;20.80;96.00
19829;DHT22;10075;50.924;4.396;2023-06-10T04:26:07;20.80;96.10
19829;DHT22;10075;50.924;4.396;2023-06-10T04:28:35;20.80;96.10
19829;DHT22;10075;50.924;4.396;2023-06-10T04:31:04;20.80;96.20
19829;DHT22;10075;50.924;4.396;2023-06-10T04:33:31;20.80;96.20
19829;DHT22;10075;50.924;4.396;2023-06-10T04:35:58;20.90;96.20
19829;DHT22;10075;50.924;4.396;2023-06-10T04:38:25;20.90;96.30
19829;DHT22;10075;50.924;4.396;2023-06-10T04:40:52;20.90;96.30
19829;DHT22;10075;50.924;4.396;2023-06-10T04:43:19;20.90;96.30
19829;DHT22;10075;50.924;4.396;2023-06-10T04:45:47;21.00;96.40
19829;DHT22;10075;50.924;4.396;2023-06-10T04:48:15;21.00;96.40
19829;DHT22;10075;50.924;4.396;2023-06-10T04:50:42;21.10;96.50
19829;DHT22;10075;50.924;4.396;2023-06-10T04:53:09;21.10;96.50
19829;DHT22;10075;50.924;4.396;2023-06-10T04:55:36;21.20;96.50
19829;DHT22;10075;50.924;4.396;2023-06-10T04:58:03;21.20;96.50
19829;DHT22;10075;50.924;4.396;2023-06-10T05:00:30;21.30;96.40
19829;DHT22;10075;50.924;4.396;2023-06-10T05:02:57;21.30;96.40
19829;DHT22;10075;50.924;4.396;2023-06-10T05:05:26;21.40;96.30
19829;DHT22;10075;50.924;4.396;2023-06-10T05:07:53;21.50;96.30
19829;DHT22;10075;50.924;4.396;2023-06-10T05:10:20;21.50;96.20
19829;DHT22;10075;50.924;4.396;2023-06-10T05:12:47;21.50;96.10
19829;DHT22;10075;50.924;4.396;2023-06-10T05:15:14;21.60;96.20
19829;DHT22;10075;50.924;4.396;2023-06-10T05:17:41;21.70;96.20
19829;DHT22;10075;50.924;4.396;2023-06-10T05:20:09;21.70;96.10
19829;DHT22;10075;50.924;4.396;2023-06-10T05:22:37;21.80;96.10
19829;DHT22;10075;50.924;4.396;2023-06-10T05:25:05;21.80;96.00
19829;DHT22;10075;50.924;4.396;2023-06-10T05:27:32;21.80;96.00
19829;DHT22;10075;50.924;4.396;2023-06-10T05:29:59;21.80;96.00
19829;DHT22;10075;50.924;4.396;2023-06-10T05:32:26;21.90;95.80
19829;DHT22;10075;50.924;4.396;2023-06-10T05:34:53;21.90;95.80
19829;DHT22;10075;50.924;4.396;2023-06-10T05:37:20;22.00;95.80
19829;DHT22;10075;50.924;4.396;2023-06-10T05:39:49;22.10;95.60
19829;DHT22;10075;50.924;4.396;2023-06-10T05:42:16;22.20;95.60
19829;DHT22;10075;50.924;4.396;2023-06-10T05:44:43;22.30;95.50
19829;DHT22;10075;50.924;4.396;2023-06-10T05:47:09;22.30;95.40
19829;DHT22;10075;50.924;4.396;2023-06-10T05:49:36;22.30;95.20
19829;DHT22;10075;50.924;4.396;2023-06-10T05:52:04;22.50;95.20
19829;DHT22;10075;50.924;4.396;2023-06-10T05:54:31;22.50;95.10
19829;DHT22;10075;50.924;4.396;2023-06-10T05:57:00;22.60;94.90
19829;DHT22;10075;50.924;4.396;2023-06-10T05:59:27;22.70;94.70
19829;DHT22;10075;50.924;4.396;2023-06-10T06:01:54;22.80;94.60
19829;DHT22;10075;50.924;4.396;2023-06-10T06:04:21;22.80;94.50
19829;DHT22;10075;50.924;4.396;2023-06-10T06:06:48;22.90;94.40
19829;DHT22;10075;50.924;4.396;2023-06-10T06:09:15;22.90;94.40
19829;DHT22;10075;50.924;4.396;2023-06-10T06:11:42;23.00;94.10
19829;DHT22;10075;50.924;4.396;2023-06-10T06:14:10;23.10;93.90
19829;DHT22;10075;50.924;4.396;2023-06-10T06:16:38;23.20;93.80
19829;DHT22;10075;50.924;4.396;2023-06-10T06:19:05;23.10;93.60
19829;DHT22;10075;50.924;4.396;2023-06-10T06:21:32;23.30;93.60
19829;DHT22;10075;50.924;4.396;2023-06-10T06:23:59;23.30;93.60
19829;DHT22;10075;50.924;4.396;2023-06-10T06:26:26;23.40;93.50
19829;DHT22;10075;50.924;4.396;2023-06-10T06:28:53;23.40;93.40
19829;DHT22;10075;50.924;4.396;2023-06-10T06:31:21;23.40;93.30
19829;DHT22;10075;50.924;4.396;2023-06-10T06:33:48;23.40;93.30
19829;DHT22;10075;50.924;4.396;2023-06-10T06:36:15;23.50;93.50
19829;DHT22;10075;50.924;4.396;2023-06-10T06:38:42;23.60;93.50
19829;DHT22;10075;50.924;4.396;2023-06-10T06:41:09;23.70;93.40
19829;DHT22;10075;50.924;4.396;2023-06-10T06:43:36;23.80;93.00
19829;DHT22;10075;50.924;4.396;2023-06-10T06:46:03;23.80;92.80
19829;DHT22;10075;50.924;4.396;2023-06-10T06:48:32;23.90;92.80
19829;DHT22;10075;50.924;4.396;2023-06-10T06:50:59;24.10;92.80
19829;DHT22;10075;50.924;4.396;2023-06-10T06:53:26;24.10;92.60
19829;DHT22;10075;50.924;4.396;2023-06-10T06:55:53;24.20;92.60
19829;DHT22;10075;50.924;4.396;2023-06-10T06:58:20;24.40;92.10
19829;DHT22;10075;50.924;4.396;2023-06-10T07:00:47;24.40;92.00
19829;DHT22;10075;50.924;4.396;2023-06-10T07:03:14;24.50;91.90
19829;DHT22;10075;50.924;4.396;2023-06-10T07:05:42;24.60;91.60
19829;DHT22;10075;50.924;4.396;2023-06-10T07:08:09;24.60;91.50
19829;DHT22;10075;50.924;4.396;2023-06-10T07:10:37;24.60;91.60
19829;DHT22;10075;50.924;4.396;2023-06-10T07:13:04;24.70;91.60
19829;DHT22;10075;50.924;4.396;2023-06-10T07:15:31;24.80;91.70
19829;DHT22;10075;50.924;4.396;2023-06-10T07:17:59;24.90;91.30
19829;DHT22;10075;50.924;4.396;2023-06-10T07:20:26;25.00;91.20
19829;DHT22;10075;50.924;4.396;2023-06-10T07:22:54;25.00;91.00
19829;DHT22;10075;50.924;4.396;2023-06-10T07:25:21;25.00;91.00
19829;DHT22;10075;50.924;4.396;2023-06-10T07:27:48;25.00;91.00
19829;DHT22;10075;50.924;4.396;2023-06-10T07:30:15;25.20;90.70
19829;DHT22;10075;50.924;4.396;2023-06-10T07:32:42;25.40;90.80
19829;DHT22;10075;50.924;4.396;2023-06-10T07:35:10;25.40;90.80
19829;DHT22;10075;50.924;4.396;2023-06-10T07:37:37;25.50;90.70
19829;DHT22;10075;50.924;4.396;2023-06-10T07:40:07;25.60;90.60
19829;DHT22;10075;50.924;4.396;2023-06-10T07:42:35;25.70;90.10
19829;DHT22;10075;50.924;4.396;2023-06-10T07:45:03;25.70;90.10
19829;DHT22;10075;50.924;4.396;2023-06-10T07:47:30;25.80;89.90
19829;DHT22;10075;50.924;4.396;2023-06-10T07:49:57;25.80;89.90
19829;DHT22;10075;50.924;4.396;2023-06-10T07:52:25;25.80;90.00
19829;DHT22;10075;50.924;4.396;2023-06-10T07:54:54;25.60;90.10
19829;DHT22;10075;50.924;4.396;2023-06-10T07:57:22;25.50;90.30
19829;DHT22;10075;50.924;4.396;2023-06-10T07:59:49;25.70;90.40
19829;DHT22;10075;50.924;4.396;2023-06-10T08:02:16;25.70;90.20
19829;DHT22;10075;50.924;4.396;2023-06-10T08:04:43;25.80;90.20
19829;DHT22;10075;50.924;4.396;2023-06-10T08:07:10;25.90;90.30
19829;DHT22;10075;50.924;4.396;2023-06-10T08:09:37;25.80;90.30
19829;DHT22;10075;50.924;4.396;2023-06-10T08:12:06;25.90;90.10
19829;DHT22;10075;50.924;4.396;2023-06-10T08:14:34;26.00;89.90
19829;DHT22;10075;50.924;4.396;2023-06-10T08:17:02;26.10;90.00
19829;DHT22;10075;50.924;4.396;2023-06-10T08:19:31;26.30;89.70
19829;DHT22;10075;50.924;4.396;2023-06-10T08:21:58;26.30;89.00
19829;DHT22;10075;50.924;4.396;2023-06-10T08:24:25;26.40;88.60
19829;DHT22;10075;50.924;4.396;2023-06-10T08:26:52;26.40;88.60
19829;DHT22;10075;50.924;4.396;2023-06-10T08:29:20;26.60;88.50
19829;DHT22;10075;50.924;4.396;2023-06-10T08:31:48;26.80;88.00
19829;DHT22;10075;50.924;4.396;2023-06-10T08:34:15;26.90;86.40
19829;DHT22;10075;50.924;4.396;2023-06-10T08:36:43;26.80;85.10
19829;DHT22;10075;50.924;4.396;2023-06-10T08:39:10;27.00;85.50
19829;DHT22;10075;50.924;4.396;2023-06-10T08:41:42;27.00;85.00
19829;DHT22;10075;50.924;4.396;2023-06-10T08:44:12;27.00;84.00
19829;DHT22;10075;50.924;4.396;2023-06-10T08:46:45;27.10;83.60
19829;DHT22;10075;50.924;4.396;2023-06-10T08:49:17;27.20;84.90
19829;DHT22;10075;50.924;4.396;2023-06-10T08:51:48;27.30;83.80
19829;DHT22;10075;50.924;4.396;2023-06-10T08:54:20;27.50;84.30
19829;DHT22;10075;50.924;4.396;2023-06-10T08:56:49;27.70;83.20
19829;DHT22;10075;50.924;4.396;2023-06-10T08:59:17;27.80;81.40
19829;DHT22;10075;50.924;4.396;2023-06-10T09:01:46;27.80;81.40
19829;DHT22;10075;50.924;4.396;2023-06-10T09:04:15;27.90;81.40
19829;DHT22;10075;50.924;4.396;2023-06-10T09:06:44;28.10;79.50
19829;DHT22;10075;50.924;4.396;2023-06-10T09:09:12;28.10;79.50
19829;DHT22;10075;50.924;4.396;2023-06-10T09:11:41;28.20;78.80
19829;DHT22;10075;50.924;4.396;2023-06-10T09:14:08;28.20;78.20
19829;DHT22;10075;50.924;4.396;2023-06-10T09:16:38;28.40;77.40
19829;DHT22;10075;50.924;4.396;2023-06-10T09:19:05;28.60;76.90
19829;DHT22;10075;50.924;4.396;2023-06-10T09:21:35;28.70;76.20
19829;DHT22;10075;50.924;4.396;2023-06-10T09:24:02;28.80;75.40
19829;DHT22;10075;50.924;4.396;2023-06-10T09:26:30;29.00;73.60
19829;DHT22;10075;50.924;4.396;2023-06-10T09:29:03;29.10;72.70
19829;DHT22;10075;50.924;4.396;2023-06-10T09:31:31;29.10;73.00
19829;DHT22;10075;50.924;4.396;2023-06-10T09:34:06;29.00;73.30
19829;DHT22;10075;50.924;4.396;2023-06-10T09:36:35;29.20;72.10
19829;DHT22;10075;50.924;4.396;2023-06-10T09:39:03;29.40;71.70
19829;DHT22;10075;50.924;4.396;2023-06-10T09:41:33;29.50;70.90
19829;DHT22;10075;50.924;4.396;2023-06-10T09:44:01;29.50;70.90
19829;DHT22;10075;50.924;4.396;2023-06-10T09:46:31;29.70;71.90
19829;DHT22;10075;50.924;4.396;2023-06-10T09:48:59;29.60;70.20
19829;DHT22;10075;50.924;4.396;2023-06-10T09:51:26;29.70;70.10
19829;DHT22;10075;50.924;4.396;2023-06-10T09:53:54;29.90;71.20
19829;DHT22;10075;50.924;4.396;2023-06-10T09:56:32;29.90;70.10
19829;DHT22;10075;50.924;4.396;2023-06-10T09:59:00;30.10;69.20
19829;DHT22;10075;50.924;4.396;2023-06-10T10:01:27;29.90;68.60
19829;DHT22;10075;50.924;4.396;2023-06-10T10:03:54;29.90;68.70
19829;DHT22;10075;50.924;4.396;2023-06-10T10:06:21;29.70;69.20
19829;DHT22;10075;50.924;4.396;2023-06-10T10:08:49;29.50;69.00
19829;DHT22;10075;50.924;4.396;2023-06-10T10:11:20;29.50;69.20
19829;DHT22;10075;50.924;4.396;2023-06-10T10:13:49;29.60;68.00
19829;DHT22;10075;50.924;4.396;2023-06-10T10:16:17;29.80;67.40
19829;DHT22;10075;50.924;4.396;2023-06-10T10:18:51;29.90;67.30
19829;DHT22;10075;50.924;4.396;2023-06-10T10:21:22;30.20;67.90
19829;DHT22;10075;50.924;4.396;2023-06-10T10:23:53;30.40;68.70
19829;DHT22;10075;50.924;4.396;2023-06-10T10:26:25;30.10;66.00
19829;DHT22;10075;50.924;4.396;2023-06-10T10:29:02;30.30;65.70
19829;DHT22;10075;50.924;4.396;2023-06-10T10:31:33;30.30;65.20
19829;DHT22;10075;50.924;4.396;2023-06-10T10:34:06;30.30;64.50
19829;DHT22;10075;50.924;4.396;2023-06-10T10:36:34;30.10;64.90
19829;DHT22;10075;50.924;4.396;2023-06-10T10:39:02;30.30;65.60
19829;DHT22;10075;50.924;4.396;2023-06-10T10:41:31;30.20;66.30
19829;DHT22;10075;50.924;4.396;2023-06-10T10:43:59;30.30;65.90
19829;DHT22;10075;50.924;4.396;2023-06-10T10:46:27;30.40;64.40
19829;DHT22;10075;50.924;4.396;2023-06-10T10:48:54;30.50;63.90
19829;DHT22;10075;50.924;4.396;2023-06-10T10:51:23;30.60;64.90
19829;DHT22;10075;50.924;4.396;2023-06-10T10:54:15;30.70;64.20
19829;DHT22;10075;50.924;4.396;2023-06-10T10:57:17;30.80;63.70
19829;DHT22;10075;50.924;4.396;2023-06-10T10:59:55;30.70;64.00
19829;DHT22;10075;50.924;4.396;2023-06-10T11:02:35;30.70;63.40
19829;DHT22;10075;50.924;4.396;2023-06-10T11:05:05;30.90;61.90
19829;DHT22;10075;50.924;4.396;2023-06-10T11:07:33;30.80;62.00
19829;DHT22;10075;50.924;4.396;2023-06-10T11:10:02;30.90;61.60
19829;DHT22;10075;50.924;4.396;2023-06-10T11:12:52;31.30;61.90
19829;DHT22;10075;50.924;4.396;2023-06-10T11:15:21;31.50;62.30
19829;DHT22;10075;50.924;4.396;2023-06-10T11:18:11;31.80;63.00
19829;DHT22;10075;50.924;4.396;2023-06-10T11:21:00;31.70;58.90
19829;DHT22;10075;50.924;4.396;2023-06-10T11:23:40;31.60;59.20
19829;DHT22;10075;50.924;4.396;2023-06-10T11:26:12;31.70;59.50
19829;DHT22;10075;50.924;4.396;2023-06-10T11:28:40;31.60;57.60
19829;DHT22;10075;50.924;4.396;2023-06-10T11:31:08;31.50;57.80
19829;DHT22;10075;50.924;4.396;2023-06-10T11:33:38;31.50;58.20
19829;DHT22;10075;50.924;4.396;2023-06-10T11:36:07;31.40;58.60
19829;DHT22;10075;50.924;4.396;2023-06-10T11:38:34;31.30;58.70
19829;DHT22;10075;50.924;4.396;2023-06-10T11:41:02;31.40;58.40
19829;DHT22;10075;50.924;4.396;2023-06-10T11:43:30;31.40;58.10
19829;DHT22;10075;50.924;4.396;2023-06-10T11:45:58;31.30;58.60
19829;DHT22;10075;50.924;4.396;2023-06-10T11:48:25;31.30;59.30
19829;DHT22;10075;50.924;4.396;2023-06-10T11:50:54;31.30;59.50
19829;DHT22;10075;50.924;4.396;2023-06-10T11:53:21;31.40;59.80
19829;DHT22;10075;50.924;4.396;2023-06-10T11:55:49;31.40;59.00
19829;DHT22;10075;50.924;4.396;2023-06-10T11:58:18;31.70;58.40
19829;DHT22;10075;50.924;4.396;2023-06-10T12:00:46;32.00;58.70
19829;DHT22;10075;50.924;4.396;2023-06-10T12:03:15;32.20;58.60
19829;DHT22;10075;50.924;4.396;2023-06-10T12:05:55;32.50;58.10
19829;DHT22;10075;50.924;4.396;2023-06-10T12:08:23;32.40;57.00
19829;DHT22;10075;50.924;4.396;2023-06-10T12:10:50;32.00;57.50
19829;DHT22;10075;50.924;4.396;2023-06-10T12:13:18;32.00;57.50
19829;DHT22;10075;50.924;4.396;2023-06-10T12:15:45;32.10;57.00
19829;DHT22;10075;50.924;4.396;2023-06-10T12:18:18;32.00;57.20
19829;DHT22;10075;50.924;4.396;2023-06-10T12:20:45;31.70;56.30
19829;DHT22;10075;50.924;4.396;2023-06-10T12:23:13;31.70;56.90
19829;DHT22;10075;50.924;4.396;2023-06-10T12:25:49;31.90;57.50
19829;DHT22;10075;50.924;4.396;2023-06-10T12:28:18;32.40;56.70
19829;DHT22;10075;50.924;4.396;2023-06-10T12:30:47;32.80;56.50
19829;DHT22;10075;50.924;4.396;2023-06-10T12:33:18;33.00;56.00
19829;DHT22;10075;50.924;4.396;2023-06-10T12:35:49;33.20;55.60
19829;DHT22;10075;50.924;4.396;2023-06-10T12:38:21;33.20;55.50
19829;DHT22;10075;50.924;4.396;2023-06-10T12:40:50;33.10;54.70
19829;DHT22;10075;50.924;4.396;2023-06-10T12:43:21;32.90;55.00
19829;DHT22;10075;50.924;4.396;2023-06-10T12:45:49;32.90;55.40
19829;DHT22;10075;50.924;4.396;2023-06-10T12:48:22;32.90;55.70
19829;DHT22;10075;50.924;4.396;2023-06-10T12:50:52;33.00;55.30
19829;DHT22;10075;50.924;4.396;2023-06-10T12:53:19;32.70;55.20
19829;DHT22;10075;50.924;4.396;2023-06-10T12:55:48;32.60;55.30
19829;DHT22;10075;50.924;4.396;2023-06-10T12:58:16;32.60;55.40
19829;DHT22;10075;50.924;4.396;2023-06-10T13:00:43;32.80;55.40
19829;DHT22;10075;50.924;4.396;2023-06-10T13:03:10;33.00;54.80
19829;DHT22;10075;50.924;4.396;2023-06-10T13:05:38;33.00;54.20
19829;DHT22;10075;50.924;4.396;2023-06-10T13:08:06;32.90;53.60
19829;DHT22;10075;50.924;4.396;2023-06-10T13:10:36;33.00;53.90
19829;DHT22;10075;50.924;4.396;2023-06-10T13:13:03;33.40;54.20
19829;DHT22;10075;50.924;4.396;2023-06-10T13:15:33;33.70;52.80
19829;DHT22;10075;50.924;4.396;2023-06-10T13:18:01;33.80;52.80
19829;DHT22;10075;50.924;4.396;2023-06-10T13:20:29;33.50;53.10
19829;DHT22;10075;50.924;4.396;2023-06-10T13:22:58;33.40;53.30
19829;DHT22;10075;50.924;4.396;2023-06-10T13:25:25;33.20;53.40
19829;DHT22;10075;50.924;4.396;2023-06-10T13:27:52;33.20;53.50
19829;DHT22;10075;50.924;4.396;2023-06-10T13:30:20;33.30;53.70
19829;DHT22;10075;50.924;4.396;2023-06-10T13:32:47;33.50;53.80
19829;DHT22;10075;50.924;4.396;2023-06-10T13:35:14;33.60;53.50
19829;DHT22;10075;50.924;4.396;2023-06-10T13:37:41;34.00;53.30
19829;DHT22;10075;50.924;4.396;2023-06-10T13:40:10;33.80;52.50
19829;DHT22;10075;50.924;4.396;2023-06-10T13:42:37;33.60;52.70
19829;DHT22;10075;50.924;4.396;2023-06-10T13:45:06;33.60;52.90
19829;DHT22;10075;50.924;4.396;2023-06-10T13:47:34;33.80;53.10
19829;DHT22;10075;50.924;4.396;2023-06-10T13:50:02;33.90;52.50
19829;DHT22;10075;50.924;4.396;2023-06-10T13:52:29;33.90;53.40
19829;DHT22;10075;50.924;4.396;2023-06-10T13:54:56;34.10;52.70
19829;DHT22;10075;50.924;4.396;2023-06-10T13:57:24;34.30;52.80
19829;DHT22;10075;50.924;4.396;2023-06-10T13:59:51;34.00;52.30
19829;DHT22;10075;50.924;4.396;2023-06-10T14:02:18;33.50;52.20
19829;DHT22;10075;50.924;4.396;2023-06-10T14:04:45;33.40;52.50
19829;DHT22;10075;50.924;4.396;2023-06-10T14:07:13;33.20;53.10
19829;DHT22;10075;50.924;4.396;2023-06-10T14:09:41;33.50;53.30
19829;DHT22;10075;50.924;4.396;2023-06-10T14:12:08;34.40;51.60
19829;DHT22;10075;50.924;4.396;2023-06-10T14:14:37;35.30;50.50
19829;DHT22;10075;50.924;4.396;2023-06-10T14:17:05;36.20;49.20
19829;DHT22;10075;50.924;4.396;2023-06-10T14:19:32;37.20;48.60
19829;DHT22;10075;50.924;4.396;2023-06-10T14:21:59;38.60;46.90
19829;DHT22;10075;50.924;4.396;2023-06-10T14:24:26;40.30;45.60
19829;DHT22;10075;50.924;4.396;2023-06-10T14:26:53;41.60;43.40
19829;DHT22;10075;50.924;4.396;2023-06-10T14:29:20;42.20;43.60
19829;DHT22;10075;50.924;4.396;2023-06-10T14:31:48;42.10;42.70
19829;DHT22;10075;50.924;4.396;2023-06-10T14:34:16;42.70;41.30
19829;DHT22;10075;50.924;4.396;2023-06-10T14:36:43;43.10;40.10
19829;DHT22;10075;50.924;4.396;2023-06-10T14:39:10;43.60;39.80
19829;DHT22;10075;50.924;4.396;2023-06-10T14:41:37;43.80;39.80
19829;DHT22;10075;50.924;4.396;2023-06-10T14:44:04;44.10;39.50
19829;DHT22;10075;50.924;4.396;2023-06-10T14:46:31;44.80;38.60
19829;DHT22;10075;50.924;4.396;2023-06-10T14:48:59;45.60;37.90
19829;DHT22;10075;50.924;4.396;2023-06-10T14:51:28;45.50;37.10
19829;DHT22;10075;50.924;4.396;2023-06-10T14:53:55;45.70;37.70
19829;DHT22;10075;50.924;4.396;2023-06-10T14:56:22;45.90;37.20
19829;DHT22;10075;50.924;4.396;2023-06-10T14:58:49;45.70;36.70
19829;DHT22;10075;50.924;4.396;2023-06-10T15:01:16;45.60;37.30
19829;DHT22;10075;50.924;4.396;2023-06-10T15:03:44;45.40;36.70
19829;DHT22;10075;50.924;4.396;2023-06-10T15:06:12;45.80;36.80
19829;DHT22;10075;50.924;4.396;2023-06-10T15:08:42;46.50;36.50
19829;DHT22;10075;50.924;4.396;2023-06-10T15:11:10;46.60;35.60
19829;DHT22;10075;50.924;4.396;2023-06-10T15:13:37;46.50;35.60
19829;DHT22;10075;50.924;4.396;2023-06-10T15:16:05;46.60;35.90
19829;DHT22;10075;50.924;4.396;2023-06-10T15:18:31;46.70;35.90
19829;DHT22;10075;50.924;4.396;2023-06-10T15:20:59;46.80;35.20
19829;DHT22;10075;50.924;4.396;2023-06-10T15:23:27;46.80;34.70
19829;DHT22;10075;50.924;4.396;2023-06-10T15:25:54;46.30;35.10
19829;DHT22;10075;50.924;4.396;2023-06-10T15:28:21;46.60;35.20
19829;DHT22;10075;50.924;4.396;2023-06-10T15:30:48;46.50;35.10
19829;DHT22;10075;50.924;4.396;2023-06-10T15:33:15;46.60;35.00
19829;DHT22;10075;50.924;4.396;2023-06-10T15:35:42;46.60;34.70
19829;DHT22;10075;50.924;4.396;2023-06-10T15:38:09;46.80;34.40